Time;durP1;ratioP1;P1;durP2;ratioP2;P2;SDS_P1;SDS_P2;PMS_P1;PMS_P2;Temp;Humidity;BMP_temperature;BMP_pressure;BME280_temperature;BME280_humidity;BME280_pressure;Samples;Min_cycle;Max_cycle;Signal;HPM_P1;HPM_P2
2022/02/22 00:01:11;;;;;;;37.00;6.95;;;8.40;99.90;;;;;;5091356;28;20121;-76
2022/02/22 00:03:37;;;;;;;50.00;6.47;;;8.30;99.90;;;;;;5088491;28;20101;-76
2022/02/22 00:06:04;;;;;;;38.25;6.10;;;8.30;99.90;;;;;;5092027;28;20103;-75
2022/02/22 00:08:30;;;;;;;33.03;5.80;;;8.20;99.90;;;;;;5089259;28;20491;-75
2022/02/22 00:10:58;;;;;;;39.63;6.38;;;8.20;99.90;;;;;;5092045;28;20038;-75
2022/02/22 00:13:27;;;;;;;37.08;7.43;;;8.20;99.90;;;;;;5089549;28;20090;-75
2022/02/22 00:15:54;;;;;;;40.90;7.60;;;8.20;99.90;;;;;;5089136;28;20080;-75
2022/02/22 00:18:20;;;;;;;33.92;6.03;;;8.20;99.90;;;;;;5087071;28;20471;-77
2022/02/22 00:20:46;;;;;;;55.15;8.32;;;8.20;99.90;;;;;;5086520;28;20047;-75
2022/02/22 00:23:11;;;;;;;46.40;7.03;;;8.10;99.90;;;;;;5092471;28;20031;-76
2022/02/22 00:25:37;;;;;;;46.55;7.35;;;8.10;99.90;;;;;;5087011;28;20411;-76
2022/02/22 00:28:03;;;;;;;40.30;6.38;;;8.10;99.90;;;;;;5089621;28;20495;-76
2022/02/22 00:30:29;;;;;;;40.28;7.88;;;8.00;99.90;;;;;;5084772;28;20380;-75
2022/02/22 00:32:54;;;;;;;40.38;6.65;;;8.00;99.90;;;;;;5086898;28;20030;-75
2022/02/22 00:35:20;;;;;;;45.85;7.38;;;8.00;99.90;;;;;;5089251;28;20387;-75
2022/02/22 00:37:46;;;;;;;43.92;7.63;;;7.90;99.90;;;;;;5090788;28;20051;-76
2022/02/22 00:40:13;;;;;;;46.25;7.97;;;7.90;99.90;;;;;;5086185;28;20434;-75
2022/02/22 00:42:39;;;;;;;43.03;6.45;;;7.90;99.90;;;;;;5089927;28;20036;-75
2022/02/22 00:45:07;;;;;;;38.65;6.38;;;8.00;99.90;;;;;;5089415;28;20028;-75
2022/02/22 00:47:33;;;;;;;38.95;6.57;;;8.00;99.90;;;;;;5082938;28;20032;-75
2022/02/22 00:49:59;;;;;;;47.40;6.40;;;7.80;99.90;;;;;;5089786;28;20484;-75
2022/02/22 00:52:25;;;;;;;46.30;6.20;;;7.80;99.90;;;;;;5088415;28;20028;-75
2022/02/22 00:54:51;;;;;;;42.97;7.25;;;7.80;99.90;;;;;;5089924;28;20032;-75
2022/02/22 00:57:17;;;;;;;44.85;7.47;;;7.80;99.90;;;;;;5089426;28;20019;-75
2022/02/22 00:59:43;;;;;;;39.55;6.05;;;7.70;99.90;;;;;;5089508;28;20414;-75
2022/02/22 01:02:08;;;;;;;45.33;7.30;;;7.60;99.90;;;;;;5084075;28;20464;-75
2022/02/22 01:04:34;;;;;;;42.47;7.35;;;7.70;99.90;;;;;;5087998;28;20055;-75
2022/02/22 01:06:59;;;;;;;39.42;5.85;;;7.60;99.90;;;;;;5092462;28;20031;-76
2022/02/22 01:09:25;;;;;;;51.63;7.13;;;7.50;99.90;;;;;;5092635;28;20035;-76
2022/02/22 01:11:51;;;;;;;56.03;7.63;;;7.50;99.90;;;;;;5091206;28;20029;-75
2022/02/22 01:14:17;;;;;;;48.20;7.75;;;7.40;99.90;;;;;;5093699;28;20024;-75
2022/02/22 01:16:42;;;;;;;53.17;7.38;;;7.50;99.90;;;;;;5091854;28;20031;-75
2022/02/22 01:19:08;;;;;;;40.28;6.57;;;7.50;99.90;;;;;;5090460;28;20031;-75
2022/02/22 01:21:35;;;;;;;46.38;6.97;;;7.50;99.90;;;;;;5090191;28;20036;-75
2022/02/22 01:24:02;;;;;;;44.15;6.13;;;7.50;99.90;;;;;;5091521;28;20031;-75
2022/02/22 01:26:28;;;;;;;42.55;6.28;;;7.50;99.90;;;;;;5088535;28;20020;-75
2022/02/22 01:28:54;;;;;;;42.03;6.85;;;7.40;99.90;;;;;;5090769;28;20021;-75
2022/02/22 01:31:21;;;;;;;44.17;6.93;;;7.50;99.90;;;;;;5091856;28;20419;-75
2022/02/22 01:33:46;;;;;;;41.83;6.40;;;7.40;99.90;;;;;;5093099;28;20067;-76
2022/02/22 01:36:12;;;;;;;52.05;8.15;;;7.50;99.90;;;;;;5087076;28;20055;-75
2022/02/22 01:38:38;;;;;;;39.60;7.25;;;7.50;99.90;;;;;;5088244;28;20559;-74
2022/02/22 01:41:04;;;;;;;45.72;5.70;;;7.40;99.90;;;;;;5088997;28;20024;-74
2022/02/22 01:43:29;;;;;;;43.80;7.57;;;7.40;99.90;;;;;;5085280;28;20104;-75
2022/02/22 01:45:55;;;;;;;41.70;6.90;;;7.30;99.90;;;;;;5092652;28;20059;-75
2022/02/22 01:48:21;;;;;;;34.25;5.43;;;7.30;99.90;;;;;;5088335;28;20078;-75
2022/02/22 01:50:46;;;;;;;53.05;7.70;;;7.30;99.90;;;;;;5087405;28;20036;-75
2022/02/22 01:53:14;;;;;;;40.28;6.57;;;7.30;99.90;;;;;;5092683;28;20024;-75
2022/02/22 01:55:39;;;;;;;32.20;5.55;;;7.30;99.90;;;;;;5093757;28;20112;-75
2022/02/22 01:58:05;;;;;;;46.28;6.57;;;7.40;99.90;;;;;;5086329;28;20103;-75
2022/02/22 02:00:31;;;;;;;47.92;6.50;;;7.40;99.90;;;;;;5089476;28;20036;-75
2022/02/22 02:02:58;;;;;;;45.55;6.57;;;7.30;99.90;;;;;;5086348;28;20024;-75
2022/02/22 02:05:24;;;;;;;39.35;5.93;;;7.30;99.90;;;;;;5086675;28;20029;-75
2022/02/22 02:07:50;;;;;;;43.20;6.40;;;7.30;99.90;;;;;;5090382;28;20035;-75
2022/02/22 02:10:16;;;;;;;36.63;6.00;;;7.30;99.90;;;;;;5087131;28;20357;-75
2022/02/22 02:12:42;;;;;;;48.25;7.13;;;7.30;99.90;;;;;;5089689;28;20031;-75
2022/02/22 02:15:09;;;;;;;42.00;7.30;;;7.30;99.90;;;;;;5085120;28;20032;-75
2022/02/22 02:17:37;;;;;;;42.85;5.97;;;7.20;99.90;;;;;;5089735;28;20461;-75
2022/02/22 02:20:08;;;;;;;45.17;6.28;;;7.30;99.90;;;;;;5088786;28;20056;-75
2022/02/22 02:22:33;;;;;;;42.17;6.10;;;7.30;99.90;;;;;;5089104;28;20029;-75
2022/02/22 02:24:59;;;;;;;49.95;7.32;;;7.30;99.90;;;;;;5089561;28;20119;-76
2022/02/22 02:27:25;;;;;;;45.38;6.80;;;7.20;99.90;;;;;;5089511;28;20038;-76
2022/02/22 02:29:50;;;;;;;42.60;6.70;;;7.20;99.90;;;;;;5085433;28;20027;-76
2022/02/22 02:32:16;;;;;;;48.15;7.40;;;7.20;99.90;;;;;;5085705;28;20598;-76
2022/02/22 02:34:42;;;;;;;39.88;6.25;;;7.20;99.90;;;;;;5086061;28;20098;-75
2022/02/22 02:37:07;;;;;;;34.53;6.10;;;7.20;99.90;;;;;;5091164;28;20028;-75
2022/02/22 02:39:33;;;;;;;44.72;6.70;;;7.30;99.90;;;;;;5084813;28;20056;-75
2022/02/22 02:41:59;;;;;;;46.38;7.38;;;7.30;99.90;;;;;;5085333;28;20109;-76
2022/02/22 02:44:25;;;;;;;37.67;6.10;;;7.30;99.90;;;;;;5085333;28;20036;-76
2022/02/22 02:46:51;;;;;;;45.80;6.95;;;7.30;99.90;;;;;;5091234;28;20036;-76
2022/02/22 02:49:18;;;;;;;49.35;6.32;;;7.20;99.90;;;;;;5086758;28;20043;-75
2022/02/22 02:51:43;;;;;;;47.03;6.40;;;7.20;99.90;;;;;;5090066;28;20020;-76
2022/02/22 02:54:10;;;;;;;35.65;6.78;;;7.10;99.90;;;;;;5086199;28;20032;-76
2022/02/22 02:56:36;;;;;;;43.00;6.55;;;7.20;99.90;;;;;;5086054;28;20024;-75
2022/02/22 02:59:05;;;;;;;42.70;6.47;;;7.00;99.90;;;;;;5092162;28;20366;-75
2022/02/22 03:01:32;;;;;;;50.42;6.18;;;7.00;99.90;;;;;;5084024;28;20028;-75
2022/02/22 03:03:58;;;;;;;43.60;6.30;;;7.10;99.90;;;;;;5082838;28;20078;-75
2022/02/22 03:06:23;;;;;;;46.38;5.82;;;7.00;99.90;;;;;;5090461;28;20028;-75
2022/02/22 03:08:49;;;;;;;38.65;6.68;;;7.00;99.90;;;;;;5093192;28;20028;-75
2022/02/22 03:11:15;;;;;;;40.75;5.95;;;6.90;99.90;;;;;;5089052;28;20024;-75
2022/02/22 03:13:41;;;;;;;44.95;6.07;;;6.90;99.90;;;;;;5088336;28;20052;-75
2022/02/22 03:16:08;;;;;;;35.03;6.18;;;6.80;99.90;;;;;;5083910;28;20024;-75
2022/02/22 03:18:34;;;;;;;42.85;6.72;;;6.70;99.90;;;;;;5084769;28;20568;-75
2022/02/22 03:21:00;;;;;;;45.90;6.45;;;6.70;99.90;;;;;;5086453;28;20032;-76
2022/02/22 03:23:25;;;;;;;40.78;7.47;;;6.80;99.90;;;;;;5090616;28;20024;-75
2022/02/22 03:25:51;;;;;;;51.75;7.35;;;6.80;99.90;;;;;;5084556;28;20028;-76
2022/02/22 03:28:18;;;;;;;43.65;7.57;;;6.70;99.90;;;;;;5084691;28;20048;-75
2022/02/22 03:30:44;;;;;;;47.83;7.03;;;6.60;99.90;;;;;;5089421;28;20043;-75
2022/02/22 03:33:10;;;;;;;41.65;6.20;;;6.60;99.90;;;;;;5084835;28;20485;-76
2022/02/22 03:35:36;;;;;;;42.03;6.97;;;6.60;99.90;;;;;;5092309;28;20028;-75
2022/02/22 03:38:03;;;;;;;49.55;7.93;;;6.70;99.90;;;;;;5090862;28;20046;-75
2022/02/22 03:40:28;;;;;;;55.03;8.13;;;6.60;99.90;;;;;;5087894;28;20805;-76
2022/02/22 03:42:54;;;;;;;37.80;6.30;;;6.60;99.90;;;;;;5080621;28;20050;-76
2022/02/22 03:45:20;;;;;;;33.33;6.32;;;6.60;99.90;;;;;;5090560;28;20067;-76
2022/02/22 03:47:46;;;;;;;41.97;6.47;;;6.60;99.90;;;;;;5081314;28;20043;-76
2022/02/22 03:50:13;;;;;;;38.17;5.00;;;6.50;99.90;;;;;;5087517;28;20028;-75
2022/02/22 03:52:39;;;;;;;53.70;6.63;;;6.60;99.90;;;;;;5083034;28;20016;-75
2022/02/22 03:55:07;;;;;;;39.65;5.53;;;6.60;99.90;;;;;;5089948;28;20039;-75
2022/02/22 03:57:34;;;;;;;31.23;5.47;;;6.50;99.90;;;;;;5083088;28;20532;-75
2022/02/22 04:00:00;;;;;;;46.17;6.03;;;6.60;99.90;;;;;;5089859;28;20119;-76
2022/02/22 04:02:26;;;;;;;37.33;4.95;;;6.60;99.90;;;;;;5088482;28;20073;-75
2022/02/22 04:04:51;;;;;;;38.50;6.25;;;6.60;99.90;;;;;;5087260;28;20547;-75
2022/02/22 04:07:17;;;;;;;43.45;6.47;;;6.70;99.90;;;;;;5084520;28;20103;-75
2022/02/22 04:09:42;;;;;;;43.60;6.88;;;6.60;99.90;;;;;;5089464;28;20131;-75
2022/02/22 04:12:08;;;;;;;43.30;6.43;;;6.50;99.90;;;;;;5088681;28;20024;-75
2022/02/22 04:14:34;;;;;;;39.95;5.18;;;6.60;99.90;;;;;;5088559;28;20039;-75
2022/02/22 04:16:59;;;;;;;43.08;6.38;;;6.70;99.90;;;;;;5084080;28;20049;-75
2022/02/22 04:19:25;;;;;;;46.63;6.05;;;6.70;99.90;;;;;;5091576;28;20040;-75
2022/02/22 04:21:50;;;;;;;43.92;5.75;;;6.80;99.90;;;;;;5091146;28;20024;-75
2022/02/22 04:24:16;;;;;;;38.30;5.57;;;6.80;99.90;;;;;;5089154;28;20032;-76
2022/02/22 04:26:41;;;;;;;40.95;5.28;;;6.90;99.90;;;;;;5088509;28;20020;-76
2022/02/22 04:29:07;;;;;;;48.70;7.18;;;6.90;99.90;;;;;;5083548;28;20048;-76
2022/02/22 04:31:38;;;;;;;32.00;4.90;;;6.90;99.90;;;;;;5089061;28;20365;-76
2022/02/22 04:34:08;;;;;;;45.17;6.20;;;6.90;99.90;;;;;;5087954;28;20111;-75
2022/02/22 04:36:35;;;;;;;43.67;6.88;;;6.90;99.90;;;;;;5085057;28;20035;-75
2022/02/22 04:39:03;;;;;;;34.42;4.85;;;6.90;99.90;;;;;;5087863;28;20024;-75
2022/02/22 04:41:28;;;;;;;31.95;5.60;;;6.80;99.90;;;;;;5090408;28;20029;-75
2022/02/22 04:43:54;;;;;;;43.38;6.40;;;6.90;99.90;;;;;;5092364;28;20020;-75
2022/02/22 04:46:19;;;;;;;39.33;6.13;;;6.90;99.90;;;;;;5084475;28;20060;-75
2022/02/22 04:48:45;;;;;;;42.90;5.78;;;6.90;99.90;;;;;;5092965;28;20107;-75
2022/02/22 04:51:11;;;;;;;37.50;5.32;;;6.90;99.90;;;;;;5090460;28;20032;-75
2022/02/22 04:53:36;;;;;;;52.10;6.22;;;6.90;99.90;;;;;;5087690;28;20093;-75
2022/02/22 04:56:02;;;;;;;34.47;5.63;;;6.80;99.90;;;;;;5092054;28;20434;-75
2022/02/22 04:58:28;;;;;;;29.48;6.10;;;6.90;99.90;;;;;;5084495;28;20426;-75
2022/02/22 05:00:53;;;;;;;47.85;6.25;;;6.90;99.90;;;;;;5092546;28;20416;-75
2022/02/22 05:03:21;;;;;;;40.05;5.95;;;6.90;99.90;;;;;;5085421;28;20084;-75
2022/02/22 05:05:46;;;;;;;45.25;5.93;;;6.80;99.90;;;;;;5092290;28;20064;-74
2022/02/22 05:08:12;;;;;;;37.92;6.05;;;6.80;99.90;;;;;;5088826;28;20057;-74
2022/02/22 05:10:37;;;;;;;35.97;5.75;;;6.70;99.90;;;;;;5087577;28;20025;-74
2022/02/22 05:13:03;;;;;;;40.70;6.28;;;6.70;99.90;;;;;;5089140;28;20033;-75
2022/02/22 05:15:33;;;;;;;40.33;5.93;;;6.70;99.90;;;;;;5088520;28;20031;-75
2022/02/22 05:17:59;;;;;;;36.40;6.32;;;6.70;99.90;;;;;;5087863;28;20031;-75
2022/02/22 05:20:25;;;;;;;41.83;6.78;;;6.60;99.90;;;;;;5086081;28;20122;-75
2022/02/22 05:22:50;;;;;;;35.60;5.75;;;6.60;99.90;;;;;;5089956;28;20166;-75
2022/02/22 05:25:16;;;;;;;38.95;6.63;;;6.60;99.90;;;;;;5083130;28;20400;-75
2022/02/22 05:27:43;;;;;;;38.33;5.88;;;6.60;99.90;;;;;;5091254;28;20062;-75
2022/02/22 05:30:10;;;;;;;40.85;6.50;;;6.50;99.90;;;;;;5092698;28;20074;-76
2022/02/22 05:32:36;;;;;;;43.28;5.97;;;6.50;99.90;;;;;;5087327;28;20032;-75
2022/02/22 05:35:02;;;;;;;41.38;5.90;;;6.50;99.90;;;;;;5090353;28;20509;-76
2022/02/22 05:37:29;;;;;;;49.55;6.55;;;6.40;99.90;;;;;;5087077;28;20020;-76
2022/02/22 05:39:55;;;;;;;36.85;6.22;;;6.40;99.90;;;;;;5091795;28;20405;-76
2022/02/22 05:42:22;;;;;;;44.80;6.25;;;6.40;99.90;;;;;;5086311;28;20032;-75
2022/02/22 05:44:48;;;;;;;30.05;5.63;;;6.40;99.90;;;;;;5089817;28;20063;-75
2022/02/22 05:47:14;;;;;;;38.83;6.15;;;6.40;99.90;;;;;;5091833;28;20063;-75
2022/02/22 05:49:39;;;;;;;36.10;6.30;;;6.40;99.90;;;;;;5086964;28;20028;-75
2022/02/22 05:52:05;;;;;;;36.67;6.28;;;6.30;99.90;;;;;;5083500;28;20020;-75
2022/02/22 05:54:31;;;;;;;37.97;6.53;;;6.20;99.90;;;;;;5089894;28;20444;-75
2022/02/22 05:56:56;;;;;;;30.27;6.47;;;6.20;99.90;;;;;;5088186;28;20017;-75
2022/02/22 05:59:22;;;;;;;39.75;6.60;;;6.20;99.90;;;;;;5090428;28;20108;-75
2022/02/22 06:01:48;;;;;;;38.28;6.45;;;6.20;99.90;;;;;;5087579;28;20481;-75
2022/02/22 06:04:13;;;;;;;41.10;5.88;;;6.20;99.90;;;;;;5084518;28;20032;-75
2022/02/22 06:06:40;;;;;;;43.45;6.72;;;6.20;99.90;;;;;;5090236;28;20024;-75
2022/02/22 06:09:07;;;;;;;42.00;6.65;;;6.20;99.90;;;;;;5085940;28;20434;-75
2022/02/22 06:11:33;;;;;;;41.35;7.00;;;6.20;99.90;;;;;;5085478;28;20066;-76
2022/02/22 06:13:59;;;;;;;46.67;7.78;;;6.20;99.90;;;;;;5088768;28;20039;-75
2022/02/22 06:16:25;;;;;;;44.08;6.70;;;6.20;99.90;;;;;;5090818;28;20028;-76
2022/02/22 06:18:51;;;;;;;32.90;6.15;;;6.30;99.90;;;;;;5090867;28;20032;-75
2022/02/22 06:21:17;;;;;;;31.67;5.70;;;6.30;99.90;;;;;;5090350;28;20085;-75
2022/02/22 06:23:43;;;;;;;35.75;6.60;;;6.30;99.90;;;;;;5084062;28;20047;-76
2022/02/22 06:26:09;;;;;;;41.35;6.35;;;6.30;99.90;;;;;;5086247;28;20054;-76
2022/02/22 06:28:34;;;;;;;37.97;6.65;;;6.30;99.90;;;;;;5086917;28;20522;-76
2022/02/22 06:31:00;;;;;;;34.45;7.30;;;6.30;99.90;;;;;;5091771;28;20036;-76
2022/02/22 06:33:26;;;;;;;42.65;6.25;;;6.30;99.90;;;;;;5082797;28;20016;-76
2022/02/22 06:35:52;;;;;;;39.58;6.30;;;6.30;99.90;;;;;;5089084;28;20036;-76
2022/02/22 06:38:18;;;;;;;35.63;5.57;;;6.30;99.90;;;;;;5093402;28;20073;-75
2022/02/22 06:40:44;;;;;;;35.63;6.50;;;6.20;99.90;;;;;;5088131;28;20047;-76
2022/02/22 06:43:10;;;;;;;38.10;7.43;;;6.20;99.90;;;;;;5090455;28;20028;-75
2022/02/22 06:45:37;;;;;;;30.25;6.85;;;6.20;99.90;;;;;;5089456;28;20523;-75
2022/02/22 06:48:03;;;;;;;31.23;7.47;;;6.30;99.90;;;;;;5086406;28;20055;-75
2022/02/22 06:50:29;;;;;;;38.42;6.00;;;6.20;99.90;;;;;;5091489;28;20476;-76
2022/02/22 06:52:55;;;;;;;35.88;7.10;;;6.20;99.90;;;;;;5084650;28;20039;-76
2022/02/22 06:55:20;;;;;;;38.92;6.95;;;6.20;99.90;;;;;;5089097;28;20028;-76
2022/02/22 06:57:49;;;;;;;41.45;6.18;;;6.20;99.90;;;;;;5083858;28;20052;-75
2022/02/22 07:00:15;;;;;;;43.20;8.43;;;6.10;99.90;;;;;;5086567;28;20044;-75
2022/02/22 07:02:41;;;;;;;39.38;7.00;;;6.20;99.90;;;;;;5089454;28;20016;-75
2022/02/22 07:05:08;;;;;;;36.95;8.23;;;6.20;99.90;;;;;;5085262;28;20024;-75
2022/02/22 07:07:34;;;;;;;40.97;7.75;;;6.20;99.90;;;;;;5084347;28;20115;-78
2022/02/22 07:10:00;;;;;;;32.42;6.65;;;6.20;99.90;;;;;;5089866;28;20024;-76
2022/02/22 07:12:26;;;;;;;34.40;6.80;;;6.20;99.90;;;;;;5085367;28;20461;-76
2022/02/22 07:14:51;;;;;;;42.97;6.68;;;6.20;99.90;;;;;;5105008;28;20392;-75
2022/02/22 07:17:17;;;;;;;29.77;6.13;;;6.20;99.90;;;;;;5082657;28;20062;-76
2022/02/22 07:19:43;;;;;;;23.73;5.60;;;6.30;99.90;;;;;;5090129;28;20384;-77
2022/02/22 07:22:09;;;;;;;36.47;6.95;;;6.30;99.90;;;;;;5085034;28;20479;-76
2022/02/22 07:24:34;;;;;;;37.28;6.75;;;6.30;99.90;;;;;;5087144;28;20095;-77
2022/02/22 07:27:00;;;;;;;35.30;6.32;;;6.30;99.90;;;;;;5085974;28;20472;-76
2022/02/22 07:29:25;;;;;;;31.17;5.95;;;6.30;99.90;;;;;;5090300;28;20064;-76
2022/02/22 07:31:51;;;;;;;33.13;6.00;;;6.40;99.90;;;;;;5087935;28;20012;-76
2022/02/22 07:34:17;;;;;;;27.92;6.15;;;6.40;99.90;;;;;;5084202;28;20071;-75
2022/02/22 07:36:42;;;;;;;26.83;7.57;;;6.50;99.90;;;;;;5090415;28;20425;-77
2022/02/22 07:39:08;;;;;;;31.02;6.88;;;6.50;99.90;;;;;;5084098;28;20077;-77
2022/02/22 07:41:34;;;;;;;32.00;7.13;;;6.50;99.90;;;;;;5086933;28;20069;-76
2022/02/22 07:43:59;;;;;;;33.10;6.68;;;6.70;99.90;;;;;;5089005;28;21168;-77
2022/02/22 07:46:25;;;;;;;28.70;6.50;;;6.60;99.90;;;;;;5084066;28;20389;-76
2022/02/22 07:48:51;;;;;;;29.65;6.25;;;6.70;99.90;;;;;;5080903;28;20036;-77
2022/02/22 07:51:18;;;;;;;32.78;7.18;;;6.70;99.90;;;;;;5086360;28;20039;-76
2022/02/22 07:53:44;;;;;;;28.50;7.68;;;6.70;99.90;;;;;;5081678;28;20027;-76
2022/02/22 07:56:11;;;;;;;34.00;7.63;;;6.80;99.90;;;;;;5085292;28;20059;-78
2022/02/22 07:58:36;;;;;;;26.38;7.22;;;6.80;99.90;;;;;;5082624;28;20034;-77
2022/02/22 08:01:02;;;;;;;32.88;7.65;;;6.70;99.90;;;;;;5082125;28;20040;-77
2022/02/22 08:03:28;;;;;;;32.63;7.03;;;6.80;99.90;;;;;;5086941;28;20012;-76
2022/02/22 08:05:54;;;;;;;40.40;8.30;;;6.80;99.90;;;;;;5086147;28;20086;-76
2022/02/22 08:08:19;;;;;;;34.10;7.45;;;6.90;99.90;;;;;;5084206;28;20020;-76
2022/02/22 08:10:45;;;;;;;30.00;8.20;;;6.90;99.90;;;;;;5087531;28;20119;-79
2022/02/22 08:13:11;;;;;;;41.58;7.93;;;7.00;99.90;;;;;;5085707;28;20091;-78
2022/02/22 08:15:36;;;;;;;31.85;6.85;;;7.00;99.90;;;;;;5090120;28;20055;-77
2022/02/22 08:18:02;;;;;;;26.27;6.60;;;7.00;99.90;;;;;;5091906;28;20479;-79
2022/02/22 08:20:28;;;;;;;30.30;5.88;;;7.10;99.90;;;;;;5094052;28;20480;-79
2022/02/22 08:22:53;;;;;;;26.00;7.05;;;7.20;99.90;;;;;;5092537;28;20415;-79
2022/02/22 08:25:19;;;;;;;28.27;6.35;;;7.20;99.90;;;;;;5092126;28;20032;-79
2022/02/22 08:27:45;;;;;;;36.75;7.00;;;7.40;99.90;;;;;;5093493;28;20016;-78
2022/02/22 08:30:12;;;;;;;25.13;5.75;;;7.30;99.90;;;;;;5087171;28;20050;-79
2022/02/22 08:32:38;;;;;;;28.40;6.35;;;7.40;99.90;;;;;;5092987;28;20016;-79
2022/02/22 08:35:05;;;;;;;25.80;6.45;;;7.30;99.90;;;;;;5089765;28;20024;-78
2022/02/22 08:37:30;;;;;;;33.78;5.85;;;7.50;99.90;;;;;;5093206;28;20050;-78
2022/02/22 08:39:56;;;;;;;33.55;6.70;;;7.60;99.90;;;;;;5093358;28;20440;-78
2022/02/22 08:42:22;;;;;;;36.97;7.30;;;7.70;99.90;;;;;;5087173;28;20123;-78
2022/02/22 08:44:47;;;;;;;37.97;7.32;;;7.70;99.90;;;;;;5088841;28;20108;-78
2022/02/22 08:47:13;;;;;;;36.72;7.25;;;7.80;99.90;;;;;;5091727;28;20024;-78
2022/02/22 08:49:39;;;;;;;38.10;6.80;;;7.80;99.90;;;;;;5093801;28;20016;-78
2022/02/22 08:52:05;;;;;;;28.77;7.40;;;7.80;99.90;;;;;;5084580;28;20036;-78
2022/02/22 08:54:31;;;;;;;37.83;6.72;;;7.90;99.90;;;;;;5090187;28;20020;-78
2022/02/22 08:56:56;;;;;;;32.97;6.47;;;7.90;99.90;;;;;;5092507;28;20086;-78
2022/02/22 08:59:22;;;;;;;30.50;6.60;;;7.90;99.90;;;;;;5089972;28;20031;-78
2022/02/22 09:01:48;;;;;;;35.10;7.38;;;7.90;99.90;;;;;;5091653;28;20062;-79
2022/02/22 09:04:13;;;;;;;32.60;7.47;;;8.00;99.90;;;;;;5091606;28;20019;-78
2022/02/22 09:06:39;;;;;;;34.67;6.20;;;8.10;99.90;;;;;;5086540;28;20028;-79
2022/02/22 09:09:04;;;;;;;38.10;7.70;;;8.30;99.90;;;;;;5093422;28;20094;-79
2022/02/22 09:11:31;;;;;;;41.20;7.90;;;8.40;99.90;;;;;;5083209;28;20031;-79
2022/02/22 09:13:57;;;;;;;39.45;7.80;;;8.40;99.90;;;;;;5083852;28;20111;-78
2022/02/22 09:16:22;;;;;;;25.80;6.60;;;8.50;99.90;;;;;;5089256;28;20051;-78
2022/02/22 09:18:48;;;;;;;41.85;8.10;;;8.50;99.90;;;;;;5086081;28;20400;-77
2022/02/22 09:21:13;;;;;;;36.15;7.65;;;8.60;99.90;;;;;;5090746;28;20119;-80
2022/02/22 09:23:39;;;;;;;36.25;7.50;;;8.60;99.90;;;;;;5082222;28;20085;-81
2022/02/22 09:26:05;;;;;;;45.15;8.57;;;8.60;99.90;;;;;;5091448;28;20435;-80
2022/02/22 09:28:31;;;;;;;34.80;8.15;;;8.60;99.90;;;;;;5084945;28;20024;-80
2022/02/22 09:30:56;;;;;;;31.20;6.85;;;8.70;99.90;;;;;;5091866;28;20031;-83
2022/02/22 09:33:22;;;;;;;30.40;6.70;;;8.60;99.90;;;;;;5090118;28;20031;-81
2022/02/22 09:35:48;;;;;;;27.70;6.60;;;8.60;99.90;;;;;;5084325;28;20484;-80
2022/02/22 09:38:14;;;;;;;27.77;6.82;;;8.60;99.90;;;;;;5090916;28;20081;-77
2022/02/22 09:40:40;;;;;;;38.03;7.30;;;8.60;99.90;;;;;;5090558;28;20084;-76
2022/02/22 09:43:06;;;;;;;49.60;8.98;;;8.70;99.90;;;;;;5086530;28;20029;-76
2022/02/22 09:45:31;;;;;;;34.53;6.85;;;8.80;99.90;;;;;;5092082;28;20061;-76
2022/02/22 09:48:01;;;;;;;31.23;6.95;;;8.80;99.90;;;;;;5082644;28;20062;-74
2022/02/22 09:50:28;;;;;;;32.30;6.35;;;8.90;99.90;;;;;;5092201;28;20267;-74
2022/02/22 09:52:54;;;;;;;37.08;7.88;;;8.90;99.90;;;;;;5086757;28;20491;-75
2022/02/22 09:55:20;;;;;;;38.08;7.32;;;8.90;99.90;;;;;;5087213;28;20032;-76
2022/02/22 09:57:46;;;;;;;32.35;8.98;;;8.90;99.90;;;;;;5086551;28;20480;-76
2022/02/22 10:00:24;;;;;;;39.83;8.05;;;8.90;99.90;;;;;;5089388;28;20393;-77
2022/02/22 10:02:50;;;;;;;35.72;7.38;;;8.90;99.90;;;;;;5088093;28;20027;-76
2022/02/22 10:05:23;;;;;;;35.47;7.57;;;9.00;99.90;;;;;;5091058;28;20036;-77
2022/02/22 10:07:51;;;;;;;36.63;7.22;;;8.90;99.90;;;;;;5091962;28;20473;-77
2022/02/22 10:10:18;;;;;;;32.08;7.13;;;9.00;99.90;;;;;;5091008;28;20119;-78
2022/02/22 10:12:44;;;;;;;32.88;6.75;;;8.90;99.90;;;;;;5089004;28;20375;-78
2022/02/22 10:15:10;;;;;;;34.05;7.78;;;8.90;99.90;;;;;;5091892;28;20124;-77
2022/02/22 10:17:38;;;;;;;41.25;7.13;;;9.00;99.90;;;;;;5089257;28;20050;-78
2022/02/22 10:20:09;;;;;;;35.13;7.00;;;9.00;99.90;;;;;;5091298;28;20471;-78
2022/02/22 10:22:49;;;;;;;31.00;7.70;;;9.00;99.90;;;;;;5090667;28;20079;-78
2022/02/22 10:25:16;;;;;;;33.55;7.88;;;9.10;99.90;;;;;;5092397;28;20020;-78
2022/02/22 10:27:46;;;;;;;45.08;8.55;;;9.20;99.90;;;;;;5088265;28;20028;-78
2022/02/22 10:30:39;;;;;;;24.77;6.70;;;9.20;99.90;;;;;;5087293;28;20024;-77
2022/02/22 10:33:12;;;;;;;33.70;8.13;;;9.20;99.90;;;;;;5088529;28;20035;-78
2022/02/22 10:35:39;;;;;;;29.55;7.20;;;9.20;99.90;;;;;;5087768;28;20536;-76
2022/02/22 10:38:15;;;;;;;36.60;7.50;;;9.30;99.90;;;;;;5089081;28;20032;-77
2022/02/22 10:40:42;;;;;;;34.03;7.80;;;9.40;99.90;;;;;;5088479;28;20378;-77
2022/02/22 10:43:18;;;;;;;31.73;7.03;;;9.40;99.90;;;;;;5089388;28;20031;-76
2022/02/22 10:45:48;;;;;;;38.83;8.13;;;9.60;99.90;;;;;;5088751;28;20395;-77
2022/02/22 10:48:27;;;;;;;43.97;7.32;;;9.70;99.90;;;;;;5090627;28;20028;-76
2022/02/22 10:50:54;;;;;;;35.22;6.75;;;9.70;99.90;;;;;;5077981;28;20059;-77
2022/02/22 10:53:29;;;;;;;44.80;8.90;;;9.70;99.90;;;;;;5085015;28;20108;-76
2022/02/22 10:55:56;;;;;;;43.60;7.80;;;9.70;99.90;;;;;;5085130;28;20299;-77
2022/02/22 10:58:24;;;;;;;44.78;8.80;;;9.70;99.90;;;;;;5086613;28;20107;-77
2022/02/22 11:00:50;;;;;;;36.97;8.90;;;9.60;99.90;;;;;;5089227;28;20032;-77
2022/02/22 11:03:15;;;;;;;43.30;8.90;;;9.70;99.90;;;;;;5089092;28;20358;-76
2022/02/22 11:05:41;;;;;;;43.42;9.20;;;9.70;99.90;;;;;;5091643;28;20070;-76
2022/02/22 11:08:06;;;;;;;47.47;9.13;;;9.80;99.90;;;;;;5089281;28;20122;-76
2022/02/22 11:10:33;;;;;;;39.75;8.23;;;9.80;99.90;;;;;;5085246;28;20077;-77
2022/02/22 11:13:01;;;;;;;43.72;8.50;;;9.80;99.90;;;;;;5088821;28;20032;-76
2022/02/22 11:15:32;;;;;;;47.50;8.95;;;9.80;99.90;;;;;;5084943;28;20274;-76
2022/02/22 11:18:03;;;;;;;37.63;8.80;;;9.80;99.90;;;;;;5090349;28;20059;-77
2022/02/22 11:20:31;;;;;;;52.42;10.48;;;9.80;99.90;;;;;;5088849;28;20379;-76
2022/02/22 11:23:00;;;;;;;46.10;8.68;;;9.80;99.90;;;;;;5089857;28;20028;-76
2022/02/22 11:25:34;;;;;;;42.13;8.15;;;9.90;99.90;;;;;;5087510;28;20080;-76
2022/02/22 11:28:09;;;;;;;53.83;9.73;;;9.80;99.90;;;;;;5085117;28;20056;-78
2022/02/22 11:30:35;;;;;;;52.47;10.55;;;9.80;99.90;;;;;;5084689;28;20537;-79
2022/02/22 11:33:11;;;;;;;55.05;9.80;;;9.80;99.90;;;;;;5086266;28;20423;-78
2022/02/22 11:35:56;;;;;;;51.92;10.20;;;9.70;99.90;;;;;;5089824;28;20055;-78
2022/02/22 11:38:24;;;;;;;68.28;10.07;;;9.70;99.90;;;;;;5081536;28;20024;-77
2022/02/22 11:40:53;;;;;;;45.72;9.75;;;9.70;99.90;;;;;;5082942;28;20098;-77
2022/02/22 11:43:20;;;;;;;51.17;8.40;;;9.70;99.90;;;;;;5089341;28;20024;-77
2022/02/22 11:45:48;;;;;;;56.25;9.95;;;9.70;99.90;;;;;;5082345;28;20025;-77
2022/02/22 11:48:19;;;;;;;40.85;8.65;;;9.70;99.90;;;;;;5087409;28;20031;-79
2022/02/22 11:50:48;;;;;;;37.00;9.20;;;9.80;99.90;;;;;;5081725;28;20381;-77
2022/02/22 11:53:19;;;;;;;53.88;9.95;;;9.80;99.90;;;;;;5086130;28;20357;-78
2022/02/22 11:55:49;;;;;;;50.00;9.40;;;9.80;99.90;;;;;;5083840;28;20424;-78
2022/02/22 11:58:20;;;;;;;41.95;8.77;;;9.90;99.90;;;;;;5086506;28;20020;-78
2022/02/22 12:00:47;;;;;;;45.78;9.23;;;9.90;99.90;;;;;;5084739;28;20040;-77
2022/02/22 12:03:15;;;;;;;57.78;9.43;;;9.80;99.90;;;;;;5088332;28;20479;-77
2022/02/22 12:05:58;;;;;;;49.45;9.13;;;9.80;99.90;;;;;;5084774;28;20035;-76
2022/02/22 12:08:33;;;;;;;44.58;8.30;;;9.70;99.90;;;;;;5090470;28;20484;-77
2022/02/22 12:11:01;;;;;;;43.78;9.52;;;9.70;99.90;;;;;;5082999;28;20016;-76
2022/02/22 12:13:40;;;;;;;53.17;10.13;;;9.80;99.90;;;;;;5090576;28;20043;-77
2022/02/22 12:16:17;;;;;;;50.58;9.27;;;9.90;99.90;;;;;;5081247;28;20029;-78
2022/02/22 12:18:45;;;;;;;48.72;8.65;;;9.90;99.90;;;;;;5085172;28;20099;-78
2022/02/22 12:21:11;;;;;;;45.50;8.95;;;9.90;99.90;;;;;;5088672;28;20096;-77
2022/02/22 12:23:39;;;;;;;48.83;8.80;;;9.90;99.90;;;;;;5088448;28;20035;-77
2022/02/22 12:26:10;;;;;;;46.65;9.05;;;9.80;99.90;;;;;;5088221;28;20024;-77
2022/02/22 12:28:58;;;;;;;41.63;8.25;;;9.90;99.90;;;;;;5089383;28;20027;-78
2022/02/22 12:31:36;;;;;;;48.65;9.38;;;9.90;99.90;;;;;;5085228;28;21090;-77
2022/02/22 12:34:05;;;;;;;40.92;8.93;;;9.90;99.90;;;;;;5087046;28;20054;-77
2022/02/22 12:36:31;;;;;;;44.55;9.63;;;9.90;99.90;;;;;;5086086;28;20043;-77
2022/02/22 12:38:59;;;;;;;40.25;9.40;;;10.00;99.90;;;;;;5087211;28;20057;-77
2022/02/22 12:41:30;;;;;;;35.78;9.93;;;10.10;99.90;;;;;;5087760;28;20040;-77
2022/02/22 12:43:56;;;;;;;41.90;11.02;;;10.00;99.90;;;;;;5086155;28;20023;-78